createdAt,value
2023-03-03T00:00:25.158Z,4.07
2023-03-03T00:02:27.878Z,3.63
2023-03-03T00:04:30.519Z,4.10
2023-03-03T00:06:33.314Z,4.83
2023-03-03T00:08:35.912Z,4.53
2023-03-03T00:10:39.578Z,3.53
2023-03-03T00:12:50.256Z,3.27
2023-03-03T00:14:53.720Z,4.40
2023-03-03T00:16:57.219Z,2.80
2023-03-03T00:19:01.368Z,3.93
2023-03-03T00:21:29.542Z,3.10
2023-03-03T00:23:37.580Z,2.37
2023-03-03T00:25:44.122Z,4.27
2023-03-03T00:27:47.441Z,3.53
2023-03-03T00:29:54.184Z,3.50
2023-03-03T00:32:16.799Z,3.40
2023-03-03T00:34:20.384Z,3.53
2023-03-03T00:36:32.938Z,2.87
2023-03-03T00:38:37.148Z,4.23
2023-03-03T00:40:40.993Z,3.50
2023-03-03T00:42:49.024Z,3.23
2023-03-03T00:44:59.917Z,4.30
2023-03-03T00:47:14.490Z,3.43
2023-03-03T00:49:26.308Z,3.30
2023-03-03T00:51:34.703Z,3.47
2023-03-03T00:53:37.410Z,3.50
2023-03-03T00:55:40.781Z,3.60
2023-03-03T00:57:43.481Z,3.93
2023-03-03T00:59:46.189Z,3.13
2023-03-03T01:01:48.915Z,3.57
2023-03-03T01:03:51.686Z,3.07
2023-03-03T01:05:54.889Z,3.30
2023-03-03T01:07:57.587Z,3.60
2023-03-03T01:10:00.211Z,3.17
2023-03-03T01:12:02.943Z,3.60
2023-03-03T01:14:05.637Z,2.80
2023-03-03T01:16:08.648Z,3.00
2023-03-03T01:18:13.117Z,3.30
2023-03-03T01:20:16.054Z,3.50
2023-03-03T01:22:18.912Z,2.93
2023-03-03T01:24:22.216Z,3.17
2023-03-03T01:26:24.952Z,2.63
2023-03-03T01:28:27.764Z,2.90
2023-03-03T01:30:31.432Z,3.93
2023-03-03T01:32:34.667Z,2.40
2023-03-03T01:34:37.297Z,2.50
2023-03-03T01:36:39.900Z,2.07
2023-03-03T01:38:43.491Z,3.30
2023-03-03T01:40:56.845Z,3.40
2023-03-03T01:43:01.154Z,3.13
2023-03-03T01:45:44.080Z,3.87
2023-03-03T01:47:58.907Z,2.80
2023-03-03T01:50:11.694Z,2.87
2023-03-03T01:52:36.351Z,3.43
2023-03-03T01:54:53.172Z,3.97
2023-03-03T01:56:59.907Z,3.80
2023-03-03T01:59:07.686Z,3.83
2023-03-03T02:01:14.950Z,3.37
2023-03-03T02:03:21.220Z,3.83
2023-03-03T02:05:23.909Z,4.83
2023-03-03T02:07:29.881Z,4.00
2023-03-03T02:09:47.442Z,3.83
2023-03-03T02:11:52.749Z,3.50
2023-03-03T02:13:55.701Z,3.67
2023-03-03T02:15:59.371Z,3.43
2023-03-03T02:18:11.703Z,3.67
2023-03-03T02:20:51.443Z,4.07
2023-03-03T02:23:16.753Z,3.83
2023-03-03T02:25:46.667Z,4.33
2023-03-03T02:27:49.792Z,3.03
2023-03-03T02:29:52.673Z,3.50
2023-03-03T02:31:55.570Z,3.07
2023-03-03T02:33:58.656Z,2.87
2023-03-03T02:36:01.250Z,3.47
2023-03-03T02:38:31.228Z,4.10
2023-03-03T02:40:41.091Z,2.97
2023-03-03T02:42:45.818Z,3.73
2023-03-03T02:44:48.458Z,3.93
2023-03-03T02:46:53.022Z,2.87
2023-03-03T02:48:55.730Z,3.43
2023-03-03T02:50:58.443Z,3.23
2023-03-03T02:53:01.028Z,2.87
2023-03-03T02:55:03.848Z,4.33
2023-03-03T02:57:07.428Z,3.33
2023-03-03T02:59:10.683Z,3.80
2023-03-03T03:01:13.351Z,3.43
2023-03-03T03:03:16.220Z,4.40
2023-03-03T03:05:18.860Z,3.23
2023-03-03T03:07:21.508Z,3.00
2023-03-03T03:09:26.110Z,3.43
2023-03-03T03:11:28.733Z,3.50
2023-03-03T03:13:32.168Z,3.43
2023-03-03T03:15:36.195Z,3.80
2023-03-03T03:17:39.777Z,3.23
2023-03-03T03:19:42.413Z,3.00
2023-03-03T03:21:45.099Z,3.23
2023-03-03T03:23:47.740Z,3.33
2023-03-03T03:25:50.593Z,3.57
2023-03-03T03:27:53.647Z,5.33
2023-03-03T03:29:56.365Z,3.67
2023-03-03T03:31:59.010Z,3.43
2023-03-03T03:34:01.835Z,3.43
2023-03-03T03:36:06.640Z,3.20
2023-03-03T03:38:09.234Z,3.30
2023-03-03T03:40:12.397Z,4.20
2023-03-03T03:42:15.578Z,3.20
2023-03-03T03:44:18.212Z,4.13
2023-03-03T03:46:21.029Z,3.93
2023-03-03T03:48:23.862Z,4.10
2023-03-03T03:50:27.019Z,3.60
2023-03-03T03:52:29.599Z,3.83
2023-03-03T03:54:32.271Z,3.87
2023-03-03T03:56:34.927Z,4.37
2023-03-03T03:58:37.708Z,4.30
2023-03-03T04:00:42.364Z,4.50
2023-03-03T04:02:45.053Z,3.27
2023-03-03T04:04:48.050Z,4.07
2023-03-03T04:06:50.690Z,3.83
2023-03-03T04:08:53.305Z,3.63
2023-03-03T04:10:55.993Z,3.80
2023-03-03T04:12:58.733Z,4.13
2023-03-03T04:15:01.478Z,3.90
2023-03-03T04:17:06.407Z,4.67
2023-03-03T04:19:08.988Z,3.90
2023-03-03T04:21:13.733Z,6.53
2023-03-03T04:23:16.303Z,4.00
2023-03-03T04:25:18.997Z,4.30
2023-03-03T04:27:21.713Z,3.87
2023-03-03T04:29:24.300Z,3.80
2023-03-03T04:31:27.000Z,4.37
2023-03-03T04:33:29.612Z,4.30
2023-03-03T04:35:32.601Z,5.13
2023-03-03T04:37:35.848Z,4.33
2023-03-03T04:39:38.465Z,4.40
2023-03-03T04:41:41.261Z,5.57
2023-03-03T04:43:44.110Z,4.23
2023-03-03T04:45:46.791Z,3.70
2023-03-03T04:47:49.436Z,4.23
2023-03-03T04:49:52.304Z,5.03
2023-03-03T04:51:54.941Z,4.17
2023-03-03T04:53:57.567Z,9.77
2023-03-03T04:56:00.533Z,3.77
2023-03-03T04:58:03.557Z,4.00
2023-03-03T05:00:06.964Z,4.13
2023-03-03T05:02:09.859Z,3.97
2023-03-03T05:04:12.621Z,4.70
2023-03-03T05:06:15.800Z,5.27
2023-03-03T05:08:18.469Z,4.30
2023-03-03T05:10:21.707Z,4.00
2023-03-03T05:12:24.465Z,4.10
2023-03-03T05:14:28.223Z,4.60
2023-03-03T05:16:30.930Z,4.50
2023-03-03T05:18:33.589Z,4.83
2023-03-03T05:20:36.227Z,3.87
2023-03-03T05:22:39.023Z,4.13
2023-03-03T05:24:43.251Z,4.40
2023-03-03T05:26:46.017Z,4.07
2023-03-03T05:28:48.720Z,6.13
2023-03-03T05:30:51.424Z,3.80
2023-03-03T05:32:54.112Z,4.70
2023-03-03T05:34:56.809Z,5.17
2023-03-03T05:36:59.707Z,5.17
2023-03-03T05:39:02.468Z,4.83
2023-03-03T05:41:05.293Z,4.70
2023-03-03T05:43:07.987Z,4.53
2023-03-03T05:45:11.601Z,4.50
2023-03-03T05:47:14.205Z,5.03
2023-03-03T05:49:17.068Z,4.10
2023-03-03T05:51:19.795Z,4.77
2023-03-03T05:53:22.437Z,4.57
2023-03-03T05:55:25.610Z,4.73
2023-03-03T05:57:28.377Z,5.23
2023-03-03T05:59:31.019Z,4.67
2023-03-03T06:01:34.058Z,4.20
2023-03-03T06:03:36.758Z,5.03
2023-03-03T06:05:39.426Z,5.60
2023-03-03T06:07:42.305Z,4.32
2023-03-03T06:09:44.881Z,4.80
2023-03-03T06:11:47.581Z,4.80
2023-03-03T06:13:50.565Z,4.80
2023-03-03T06:15:53.193Z,5.43
2023-03-03T06:17:55.885Z,4.95
2023-03-03T06:19:58.483Z,4.65
2023-03-03T06:22:01.118Z,5.13
2023-03-03T06:24:03.847Z,7.22
2023-03-03T06:26:06.541Z,4.13
2023-03-03T06:28:09.319Z,4.25
2023-03-03T06:30:13.153Z,4.72
2023-03-03T06:32:15.995Z,5.03
2023-03-03T06:34:19.799Z,4.97
2023-03-03T06:36:23.727Z,5.03
2023-03-03T06:38:26.531Z,4.50
2023-03-03T06:40:29.205Z,4.40
2023-03-03T06:42:31.939Z,4.93
2023-03-03T06:44:34.655Z,5.25
2023-03-03T06:46:37.290Z,6.20
2023-03-03T06:48:40.994Z,4.65
2023-03-03T06:50:43.650Z,4.80
2023-03-03T06:52:46.292Z,5.95
2023-03-03T06:54:49.776Z,6.00
2023-03-03T06:56:57.417Z,6.32
2023-03-03T06:59:02.992Z,5.85
2023-03-03T07:01:16.009Z,6.32
2023-03-03T07:03:23.384Z,5.75
2023-03-03T07:05:29.069Z,5.85
2023-03-03T07:07:31.677Z,5.75
2023-03-03T07:09:34.349Z,5.57
2023-03-03T07:11:39.906Z,4.35
2023-03-03T07:13:55.760Z,4.82
2023-03-03T07:16:02.418Z,4.32
2023-03-03T07:18:30.983Z,5.50
2023-03-03T07:20:39.024Z,5.70
2023-03-03T07:22:41.753Z,4.63
2023-03-03T07:24:47.525Z,5.05
2023-03-03T07:26:50.208Z,5.53
2023-03-03T07:29:00.463Z,4.78
2023-03-03T07:31:27.654Z,4.90
2023-03-03T07:33:38.110Z,4.57
2023-03-03T07:35:45.182Z,4.05
2023-03-03T07:37:48.765Z,3.75
2023-03-03T07:39:51.651Z,3.70
2023-03-03T07:42:01.559Z,3.85
2023-03-03T07:44:38.220Z,3.20
2023-03-03T07:47:00.902Z,3.38
2023-03-03T07:49:20.948Z,3.42
2023-03-03T07:51:43.665Z,3.38
2023-03-03T07:53:47.651Z,3.92
2023-03-03T07:55:50.985Z,3.15
2023-03-03T07:57:59.120Z,3.45
2023-03-03T08:00:17.119Z,3.53
2023-03-03T08:02:43.785Z,3.80
2023-03-03T08:04:51.145Z,3.70
2023-03-03T08:06:56.122Z,3.75
2023-03-03T08:09:12.032Z,4.47
2023-03-03T08:11:14.701Z,3.17
2023-03-03T08:13:21.572Z,6.30
2023-03-03T08:15:28.207Z,3.65
2023-03-03T08:17:40.096Z,4.82
2023-03-03T08:19:42.723Z,3.47
2023-03-03T08:21:45.541Z,3.78
2023-03-03T08:23:52.046Z,3.58
2023-03-03T08:25:54.996Z,3.55
2023-03-03T08:27:57.712Z,3.25
2023-03-03T08:30:00.526Z,3.80
2023-03-03T08:32:03.409Z,3.20
2023-03-03T08:34:06.228Z,3.78
2023-03-03T08:36:09.177Z,3.47
2023-03-03T08:38:13.857Z,2.72
2023-03-03T08:40:16.604Z,3.25
2023-03-03T08:42:19.696Z,3.72
2023-03-03T08:44:22.326Z,2.88
2023-03-03T08:46:25.014Z,4.40
2023-03-03T08:48:28.707Z,2.72
2023-03-03T08:50:31.414Z,3.60
2023-03-03T08:52:34.532Z,3.33
2023-03-03T08:54:37.229Z,3.08
2023-03-03T08:56:40.556Z,2.95
2023-03-03T08:59:01.627Z,3.22
2023-03-03T09:03:08.368Z,2.90
2023-03-03T09:05:12.272Z,3.20
2023-03-03T09:07:14.957Z,3.60
2023-03-03T09:09:17.694Z,3.60
2023-03-03T09:11:26.658Z,3.45
2023-03-03T09:13:31.654Z,3.25
2023-03-03T09:15:36.570Z,2.80
2023-03-03T09:17:39.303Z,3.30
2023-03-03T09:19:42.030Z,3.63
2023-03-03T09:21:44.791Z,3.05
2023-03-03T09:23:55.115Z,3.28
2023-03-03T09:26:06.534Z,3.88
2023-03-03T09:28:25.155Z,3.33
2023-03-03T09:30:36.562Z,4.00
2023-03-03T09:32:43.371Z,3.72
2023-03-03T09:34:48.033Z,3.22
2023-03-03T09:36:53.067Z,3.50
2023-03-03T09:38:58.308Z,3.33
2023-03-03T09:41:12.764Z,4.05
2023-03-03T09:43:26.813Z,3.95
2023-03-03T09:45:41.046Z,3.35
2023-03-03T09:48:14.906Z,3.88
2023-03-03T09:50:36.915Z,4.07
2023-03-03T09:53:12.232Z,3.25
2023-03-03T09:55:17.417Z,4.38
2023-03-03T09:57:40.006Z,4.95
2023-03-03T09:59:58.861Z,4.47
2023-03-03T10:02:36.791Z,3.47
2023-03-03T10:04:58.002Z,3.60
2023-03-03T10:07:36.126Z,3.28
2023-03-03T10:10:01.679Z,4.70
2023-03-03T10:12:27.903Z,4.38
2023-03-03T10:15:12.241Z,4.30
2023-03-03T10:17:33.224Z,3.60
2023-03-03T10:19:55.433Z,4.13
2023-03-03T10:24:29.089Z,7.03
2023-03-03T10:26:54.969Z,5.18
2023-03-03T10:29:22.204Z,4.03
2023-03-03T10:31:37.239Z,3.85
2023-03-03T10:33:58.147Z,5.85
2023-03-03T10:36:09.891Z,4.47
2023-03-03T10:38:37.485Z,4.85
2023-03-03T10:40:49.280Z,4.57
2023-03-03T10:43:31.224Z,6.00
2023-03-03T10:45:37.556Z,4.95
2023-03-03T10:47:49.890Z,4.53
2023-03-03T10:50:10.982Z,5.10
2023-03-03T10:52:22.830Z,4.72
2023-03-03T10:54:53.465Z,4.97
2023-03-03T10:56:56.015Z,5.55
2023-03-03T10:59:10.059Z,4.45
2023-03-03T11:01:27.076Z,5.22
2023-03-03T11:03:50.097Z,4.60
2023-03-03T11:06:02.590Z,5.20
2023-03-03T11:08:14.506Z,5.97
2023-03-03T11:10:32.262Z,5.20
2023-03-03T11:12:40.824Z,5.03
2023-03-03T11:15:02.204Z,4.65
2023-03-03T11:17:28.261Z,5.85
2023-03-03T11:19:52.853Z,5.07
2023-03-03T11:22:14.294Z,7.28
2023-03-03T11:24:40.569Z,5.03
2023-03-03T11:26:50.407Z,5.65
2023-03-03T11:29:08.373Z,4.32
2023-03-03T11:31:16.916Z,5.55
2023-03-03T11:33:45.422Z,5.03
2023-03-03T11:36:06.614Z,5.00
2023-03-03T11:38:18.076Z,4.82
2023-03-03T11:40:27.489Z,4.72
2023-03-03T11:43:05.696Z,4.78
2023-03-03T11:45:27.965Z,4.70
2023-03-03T11:49:49.533Z,4.55
2023-03-03T11:52:27.776Z,5.05
2023-03-03T11:54:56.975Z,4.70
2023-03-03T11:57:27.810Z,3.78
2023-03-03T11:59:40.267Z,4.10
2023-03-03T12:02:05.980Z,4.38
2023-03-03T12:04:19.710Z,4.38
2023-03-03T12:06:45.636Z,3.95
2023-03-03T12:09:18.585Z,3.20
2023-03-03T12:11:24.178Z,4.45
2023-03-03T12:13:52.280Z,3.63
2023-03-03T12:16:26.824Z,4.15
2023-03-03T12:18:29.395Z,4.03
2023-03-03T12:20:40.745Z,3.67
2023-03-03T12:23:04.492Z,3.80
2023-03-03T12:25:20.657Z,4.38
2023-03-03T12:27:51.500Z,3.75
2023-03-03T12:30:23.887Z,4.40
2023-03-03T12:33:09.216Z,4.65
2023-03-03T12:35:26.268Z,3.13
2023-03-03T12:37:49.291Z,3.47
2023-03-03T12:40:33.719Z,4.05
2023-03-03T12:43:06.181Z,4.28
2023-03-03T12:45:37.049Z,3.25
2023-03-03T12:47:47.349Z,3.05
2023-03-03T12:50:08.120Z,3.63
2023-03-03T12:52:44.817Z,4.13
2023-03-03T12:55:05.756Z,3.95
2023-03-03T12:57:17.742Z,4.32
2023-03-03T12:59:26.178Z,4.50
2023-03-03T13:01:49.378Z,4.50
2023-03-03T13:04:05.514Z,5.57
2023-03-03T13:06:40.327Z,3.97
2023-03-03T13:09:09.450Z,4.95
2023-03-03T13:11:46.273Z,4.55
2023-03-03T13:14:01.482Z,4.50
2023-03-03T13:16:40.558Z,4.63
2023-03-03T13:19:03.097Z,4.85
2023-03-03T13:21:32.924Z,4.65
2023-03-03T13:23:53.338Z,4.45
2023-03-03T13:25:58.428Z,3.92
2023-03-03T13:28:53.617Z,4.47
2023-03-03T13:31:03.648Z,3.85
2023-03-03T13:33:31.435Z,3.95
2023-03-03T13:35:55.449Z,3.25
2023-03-03T13:37:59.721Z,4.47
2023-03-03T13:40:14.903Z,3.70
2023-03-03T13:42:46.100Z,4.35
2023-03-03T13:44:51.258Z,3.60
2023-03-03T13:47:02.907Z,4.57
2023-03-03T13:49:26.568Z,3.53
2023-03-03T13:51:35.114Z,3.17
2023-03-03T13:54:02.462Z,3.95
2023-03-03T13:56:32.299Z,4.47
2023-03-03T13:58:44.029Z,3.67
2023-03-03T14:00:59.381Z,3.65
2023-03-03T14:03:34.244Z,3.40
2023-03-03T14:05:48.354Z,3.72
2023-03-03T14:08:09.605Z,2.97
2023-03-03T14:10:36.039Z,3.78
2023-03-03T14:12:50.480Z,2.92
2023-03-03T14:14:53.080Z,3.22
2023-03-03T14:17:24.052Z,3.35
2023-03-03T14:19:33.263Z,2.78
2023-03-03T14:21:57.203Z,3.13
2023-03-03T14:24:25.402Z,2.70
2023-03-03T14:26:28.116Z,2.70
2023-03-03T14:28:40.084Z,2.10
2023-03-03T14:30:45.527Z,2.22
2023-03-03T14:33:04.402Z,2.83
2023-03-03T14:35:18.467Z,1.90
2023-03-03T14:37:30.125Z,1.77
2023-03-03T14:39:39.126Z,2.38
2023-03-03T14:41:42.491Z,2.30
2023-03-03T14:44:19.212Z,2.45
2023-03-03T14:46:27.861Z,2.90
2023-03-03T14:48:32.664Z,2.58
2023-03-03T14:50:44.042Z,2.35
2023-03-03T14:53:12.004Z,1.90
2023-03-03T14:55:45.452Z,2.10
2023-03-03T14:57:48.276Z,3.35
2023-03-03T15:00:11.195Z,2.80
2023-03-03T15:02:16.542Z,2.60
2023-03-03T15:04:21.697Z,3.03
2023-03-03T15:06:29.108Z,3.05
2023-03-03T15:08:34.790Z,3.15
2023-03-03T15:10:41.179Z,2.80
2023-03-03T15:12:43.999Z,3.88
2023-03-03T15:14:49.266Z,3.17
2023-03-03T15:16:52.303Z,2.13
2023-03-03T15:19:16.609Z,2.17
2023-03-03T15:21:32.414Z,2.17
2023-03-03T15:23:44.148Z,2.85
2023-03-03T15:26:01.076Z,2.72
2023-03-03T15:28:08.346Z,2.22
2023-03-03T15:30:44.300Z,2.85
2023-03-03T15:33:20.967Z,2.50
2023-03-03T15:35:45.102Z,2.22
2023-03-03T15:37:56.738Z,1.77
2023-03-03T15:40:13.974Z,2.58
2023-03-03T15:42:43.156Z,3.30
2023-03-03T15:45:06.533Z,2.10
2023-03-03T15:47:15.114Z,2.28
2023-03-03T15:49:38.404Z,2.97
2023-03-03T15:52:02.261Z,2.25
2023-03-03T15:54:15.591Z,1.70
2023-03-03T15:56:33.331Z,2.20
2023-03-03T15:58:57.661Z,2.05
2023-03-03T16:01:27.428Z,1.55
2023-03-03T16:03:46.711Z,1.90
2023-03-03T16:06:03.970Z,2.05
2023-03-03T16:08:36.168Z,1.92
2023-03-03T16:10:55.520Z,2.78
2023-03-03T16:13:06.258Z,1.88
2023-03-03T16:15:37.844Z,2.20
2023-03-03T16:18:07.241Z,2.42
2023-03-03T16:20:42.183Z,2.58
2023-03-03T16:23:12.560Z,1.85
2023-03-03T16:25:42.611Z,2.42
2023-03-03T16:28:00.088Z,2.80
2023-03-03T16:30:43.268Z,2.35
2023-03-03T16:33:03.483Z,2.13
2023-03-03T16:35:25.907Z,2.40
2023-03-03T16:37:36.748Z,2.10
2023-03-03T16:40:11.491Z,2.50
2023-03-03T16:42:28.600Z,2.47
2023-03-03T16:44:50.467Z,2.65
2023-03-03T16:46:56.648Z,4.07
2023-03-03T16:49:18.064Z,4.28
2023-03-03T16:51:53.181Z,4.05
2023-03-03T16:54:19.335Z,6.60
2023-03-03T16:56:34.665Z,5.10
2023-03-03T16:59:04.790Z,4.55
2023-03-03T17:01:16.356Z,7.57
2023-03-03T17:03:40.443Z,3.20
2023-03-03T17:05:52.334Z,2.88
2023-03-03T17:08:10.353Z,2.55
2023-03-03T17:10:52.063Z,2.63
2023-03-03T17:12:54.789Z,3.33
2023-03-03T17:15:15.650Z,3.67
2023-03-03T17:17:26.455Z,4.43
2023-03-03T17:19:44.247Z,4.70
2023-03-03T17:22:18.225Z,5.43
2023-03-03T17:24:41.779Z,4.55
2023-03-03T17:27:09.076Z,7.20
2023-03-03T17:29:47.666Z,5.63
2023-03-03T17:32:12.377Z,4.97
2023-03-03T17:34:39.548Z,3.65
2023-03-03T17:37:19.498Z,3.40
2023-03-03T17:39:39.947Z,3.40
2023-03-03T17:41:54.225Z,5.00
2023-03-03T17:44:38.432Z,3.05
2023-03-03T17:46:55.148Z,3.28
2023-03-03T17:49:18.571Z,3.33
2023-03-03T17:51:46.551Z,3.00
2023-03-03T17:54:33.990Z,2.67
2023-03-03T17:57:16.956Z,2.47
2023-03-03T17:59:56.984Z,2.55
2023-03-03T18:02:24.516Z,2.95
2023-03-03T18:05:02.439Z,3.03
2023-03-03T18:07:18.944Z,3.03
2023-03-03T18:09:26.440Z,2.88
2023-03-03T18:11:39.999Z,3.28
2023-03-03T18:14:01.393Z,2.85
2023-03-03T18:16:26.860Z,1.73
2023-03-03T18:18:35.094Z,2.50
2023-03-03T18:20:56.693Z,4.10
2023-03-03T18:23:24.159Z,3.28
2023-03-03T18:26:03.261Z,4.47
2023-03-03T18:28:05.963Z,3.10
2023-03-03T18:30:08.661Z,4.47
2023-03-03T18:32:20.586Z,4.18
2023-03-03T18:34:35.917Z,3.33
2023-03-03T18:36:56.189Z,3.60
2023-03-03T18:39:03.154Z,4.45
2023-03-03T18:41:13.451Z,3.55
2023-03-03T18:43:45.198Z,3.43
2023-03-03T18:45:50.305Z,2.63
2023-03-03T18:48:04.316Z,3.28
2023-03-03T18:50:25.853Z,4.28
2023-03-03T18:52:31.105Z,3.78
2023-03-03T18:54:40.049Z,4.30
2023-03-03T18:56:57.998Z,15.52
2023-03-03T18:59:00.612Z,3.17
2023-03-03T19:01:11.874Z,2.73
2023-03-03T19:03:28.537Z,3.08
2023-03-03T19:05:49.048Z,3.23
2023-03-03T19:08:01.884Z,2.50
2023-03-03T19:10:40.212Z,3.20
2023-03-03T19:12:42.869Z,2.80
2023-03-03T19:14:48.407Z,2.88
2023-03-03T19:16:52.589Z,3.17
2023-03-03T19:18:55.295Z,3.47
2023-03-03T19:21:19.045Z,2.97
2023-03-03T19:23:50.071Z,3.53
2023-03-03T19:26:23.559Z,3.05
2023-03-03T19:28:46.537Z,3.83
2023-03-03T19:30:59.370Z,4.40
2023-03-03T19:33:40.936Z,3.85
2023-03-03T19:36:00.360Z,3.72
2023-03-03T19:38:11.869Z,5.05
2023-03-03T19:40:52.065Z,3.53
2023-03-03T19:43:09.393Z,3.67
2023-03-03T19:45:40.958Z,4.15
2023-03-03T19:48:06.598Z,4.03
2023-03-03T19:50:29.417Z,4.43
2023-03-03T19:52:41.750Z,5.07
2023-03-03T19:55:02.564Z,4.43
2023-03-03T19:57:20.194Z,4.85
2023-03-03T19:59:46.518Z,3.88
2023-03-03T20:02:07.447Z,4.37
2023-03-03T20:04:28.149Z,4.07
2023-03-03T20:06:51.334Z,4.22
2023-03-03T20:08:59.490Z,4.03
2023-03-03T20:11:36.054Z,4.45
2023-03-03T20:13:44.335Z,4.53
2023-03-03T20:16:04.983Z,5.20
2023-03-03T20:18:38.799Z,4.55
2023-03-03T20:21:00.266Z,4.78
2023-03-03T20:23:17.403Z,4.97
2023-03-03T20:25:36.021Z,5.40
2023-03-03T20:28:05.899Z,4.30
2023-03-03T20:30:47.297Z,4.30
2023-03-03T20:33:03.194Z,5.43
2023-03-03T20:35:26.054Z,5.03
2023-03-03T20:37:46.743Z,5.43
2023-03-03T20:40:11.713Z,4.35
2023-03-03T20:42:27.144Z,4.90
2023-03-03T20:45:08.246Z,4.82
2023-03-03T20:47:31.573Z,4.43
2023-03-03T20:49:49.386Z,5.25
2023-03-03T20:52:04.311Z,5.10
2023-03-03T20:54:51.047Z,5.18
2023-03-03T20:57:19.911Z,4.68
2023-03-03T20:59:34.721Z,4.65
2023-03-03T21:01:53.418Z,5.13
2023-03-03T21:04:22.172Z,4.70
2023-03-03T21:06:39.056Z,3.97
2023-03-03T21:08:55.036Z,5.07
2023-03-03T21:10:57.934Z,5.00
2023-03-03T21:13:27.075Z,6.28
2023-03-03T21:15:34.058Z,4.80
2023-03-03T21:17:36.688Z,4.82
2023-03-03T21:19:39.320Z,4.90
2023-03-03T21:21:46.473Z,5.15
2023-03-03T21:23:50.910Z,5.20
2023-03-03T21:25:55.319Z,5.15
2023-03-03T21:28:32.223Z,5.43
2023-03-03T21:30:34.888Z,4.75
2023-03-03T21:32:44.984Z,4.40
2023-03-03T21:35:03.992Z,4.63
2023-03-03T21:37:12.442Z,7.45
2023-03-03T21:39:31.468Z,4.38
2023-03-03T21:41:57.022Z,4.72
2023-03-03T21:43:59.796Z,5.25
2023-03-03T21:46:03.597Z,6.35
2023-03-03T21:48:06.574Z,5.25
2023-03-03T21:50:09.821Z,5.90
2023-03-03T21:52:15.164Z,5.40
2023-03-03T21:54:17.929Z,6.07
2023-03-03T21:56:20.497Z,5.65
2023-03-03T21:58:23.413Z,5.47
2023-03-03T22:00:26.406Z,5.43
2023-03-03T22:02:29.037Z,5.97
2023-03-03T22:04:31.891Z,6.20
2023-03-03T22:06:34.624Z,5.68
2023-03-03T22:08:37.274Z,5.40
2023-03-03T22:10:39.931Z,5.30
2023-03-03T22:12:42.513Z,6.35
2023-03-03T22:14:45.184Z,5.57
2023-03-03T22:16:47.890Z,5.75
2023-03-03T22:18:50.629Z,5.20
2023-03-03T22:20:53.196Z,5.53
2023-03-03T22:22:55.894Z,5.20
2023-03-03T22:24:58.449Z,6.30
2023-03-03T22:27:01.046Z,6.25
2023-03-03T22:29:04.077Z,5.57
2023-03-03T22:31:07.407Z,5.50
2023-03-03T22:33:10.142Z,7.60
2023-03-03T22:35:12.890Z,6.05
2023-03-03T22:37:15.546Z,5.25
2023-03-03T22:39:18.084Z,6.28
2023-03-03T22:41:20.805Z,6.45
2023-03-03T22:43:23.606Z,6.13
2023-03-03T22:45:26.430Z,5.75
2023-03-03T22:47:29.076Z,5.15
2023-03-03T22:49:31.754Z,5.47
2023-03-03T22:51:34.407Z,6.30
2023-03-03T22:53:37.021Z,4.95
2023-03-03T22:55:39.693Z,6.25
2023-03-03T22:57:42.714Z,5.63
2023-03-03T22:59:45.317Z,5.38
2023-03-03T23:01:48.007Z,5.63
2023-03-03T23:03:50.758Z,6.10
2023-03-03T23:05:53.699Z,6.18
2023-03-03T23:07:56.329Z,6.47
2023-03-03T23:09:58.934Z,6.00
2023-03-03T23:12:02.172Z,5.57
2023-03-03T23:14:04.946Z,6.03
2023-03-03T23:16:07.954Z,6.22
2023-03-03T23:18:10.716Z,5.97
2023-03-03T23:20:17.023Z,5.60
2023-03-03T23:22:19.841Z,5.68
2023-03-03T23:24:22.507Z,5.30
2023-03-03T23:26:25.176Z,5.65
2023-03-03T23:28:27.770Z,4.30
2023-03-03T23:30:30.404Z,6.38
2023-03-03T23:32:33.090Z,7.25
2023-03-03T23:34:35.902Z,6.18
2023-03-03T23:36:38.551Z,5.55
2023-03-03T23:38:43.080Z,5.20
2023-03-03T23:40:47.004Z,5.28
2023-03-03T23:42:49.894Z,6.85
2023-03-03T23:44:52.535Z,5.85
2023-03-03T23:46:55.237Z,6.28
2023-03-03T23:48:58.326Z,6.32
2023-03-03T23:51:01.694Z,6.35
2023-03-03T23:53:05.461Z,5.72
2023-03-03T23:55:08.597Z,5.93
2023-03-03T23:57:11.319Z,7.30
2023-03-03T23:59:15.188Z,6.40
